createdAt,value
2018-06-20T00:00:56.829Z,20.90
2018-06-20T00:03:24.693Z,20.90
2018-06-20T00:05:52.539Z,20.90
2018-06-20T00:08:20.395Z,20.90
2018-06-20T00:10:48.575Z,20.90
2018-06-20T00:13:16.373Z,20.90
2018-06-20T00:15:44.204Z,20.90
2018-06-20T00:18:11.991Z,20.90
2018-06-20T00:20:40.660Z,20.90
2018-06-20T00:23:08.917Z,20.90
2018-06-20T00:25:37.309Z,20.90
2018-06-20T00:28:05.372Z,20.90
2018-06-20T00:30:33.358Z,20.90
2018-06-20T00:33:01.214Z,20.90
2018-06-20T00:35:29.388Z,20.90
2018-06-20T00:37:57.359Z,20.90
2018-06-20T00:40:25.483Z,20.90
2018-06-20T00:42:53.642Z,20.90
2018-06-20T00:45:21.739Z,20.90
2018-06-20T00:47:49.747Z,20.90
2018-06-20T00:50:17.896Z,20.90
2018-06-20T00:52:45.795Z,20.90
2018-06-20T00:55:14.237Z,20.90
2018-06-20T00:57:42.015Z,20.90
2018-06-20T01:00:10.005Z,20.90
2018-06-20T01:02:38.064Z,20.90
2018-06-20T01:05:05.681Z,20.90
2018-06-20T01:07:33.469Z,20.90
2018-06-20T01:10:01.262Z,20.90
2018-06-20T01:12:29.418Z,20.90
2018-06-20T01:14:57.161Z,20.90
2018-06-20T01:17:25.559Z,20.80
2018-06-20T01:19:53.328Z,20.80
2018-06-20T01:22:21.114Z,20.80
2018-06-20T01:24:48.865Z,20.80
2018-06-20T01:27:16.736Z,20.80
2018-06-20T01:29:44.929Z,20.80
2018-06-20T01:32:12.970Z,20.90
2018-06-20T01:34:40.810Z,20.60
2018-06-20T01:37:08.698Z,20.80
2018-06-20T01:39:36.471Z,20.80
2018-06-20T01:42:04.211Z,20.80
2018-06-20T01:44:32.147Z,20.80
2018-06-20T01:47:00.008Z,20.80
2018-06-20T01:49:28.753Z,20.80
2018-06-20T01:51:56.487Z,20.70
2018-06-20T01:54:24.327Z,20.70
2018-06-20T01:56:52.176Z,20.70
2018-06-20T01:59:20.231Z,20.80
2018-06-20T02:01:48.431Z,20.70
2018-06-20T02:04:16.422Z,20.80
2018-06-20T02:06:44.636Z,20.80
2018-06-20T02:09:13.088Z,20.70
2018-06-20T02:11:41.142Z,20.70
2018-06-20T02:14:09.466Z,20.70
2018-06-20T02:16:37.565Z,20.70
2018-06-20T02:19:05.406Z,20.70
2018-06-20T02:21:33.607Z,20.70
2018-06-20T02:24:01.595Z,20.70
2018-06-20T02:26:29.629Z,20.70
2018-06-20T02:28:57.473Z,20.70
2018-06-20T02:31:25.861Z,20.60
2018-06-20T02:33:54.148Z,20.60
2018-06-20T02:36:27.727Z,20.50
2018-06-20T02:38:55.808Z,20.50
2018-06-20T02:41:23.855Z,20.40
2018-06-20T02:43:51.610Z,20.40
2018-06-20T02:46:19.628Z,20.40
2018-06-20T02:48:48.046Z,20.40
2018-06-20T02:53:44.310Z,20.30
2018-06-20T02:56:12.078Z,20.30
2018-06-20T02:58:40.447Z,20.30
2018-06-20T03:01:08.550Z,20.20
2018-06-20T03:03:36.875Z,20.30
2018-06-20T03:08:32.675Z,20.20
2018-06-20T03:11:00.851Z,20.20
2018-06-20T03:13:28.742Z,20.20
2018-06-20T03:15:56.502Z,20.10
2018-06-20T03:18:24.264Z,20.10
2018-06-20T03:20:52.034Z,20.10
2018-06-20T03:23:19.855Z,20.10
2018-06-20T03:25:47.661Z,20.10
2018-06-20T03:28:15.825Z,20.10
2018-06-20T03:30:43.697Z,20.00
2018-06-20T03:33:11.698Z,20.00
2018-06-20T03:35:39.726Z,20.00
2018-06-20T03:38:07.582Z,20.00
2018-06-20T03:40:35.313Z,20.00
2018-06-20T03:43:03.156Z,20.00
2018-06-20T03:45:31.434Z,20.10
2018-06-20T03:47:59.905Z,20.10
2018-06-20T03:50:27.687Z,20.10
2018-06-20T03:55:23.198Z,20.10
2018-06-20T03:57:50.974Z,20.10
2018-06-20T04:00:19.048Z,20.10
2018-06-20T04:02:47.139Z,20.10
2018-06-20T04:05:15.235Z,20.10
2018-06-20T04:07:43.297Z,20.10
2018-06-20T04:10:11.105Z,20.20
2018-06-20T04:12:39.307Z,20.20
2018-06-20T04:15:07.341Z,20.20
2018-06-20T04:17:35.117Z,20.20
2018-06-20T04:20:03.582Z,20.20
2018-06-20T04:22:31.593Z,20.30
2018-06-20T04:24:59.945Z,20.30
2018-06-20T04:27:28.060Z,20.40
2018-06-20T04:29:56.097Z,20.50
2018-06-20T04:32:23.822Z,20.50
2018-06-20T04:34:51.672Z,20.50
2018-06-20T04:37:19.754Z,20.60
2018-06-20T04:39:47.549Z,20.60
2018-06-20T04:42:15.345Z,20.70
2018-06-20T04:44:43.199Z,20.80
2018-06-20T04:47:10.847Z,20.90
2018-06-20T04:49:38.767Z,21.00
2018-06-20T04:52:06.787Z,21.10
2018-06-20T04:54:35.193Z,21.10
2018-06-20T04:57:03.568Z,21.20
2018-06-20T05:01:59.066Z,21.60
2018-06-20T05:04:26.858Z,21.80
2018-06-20T05:06:54.856Z,21.90
2018-06-20T05:09:22.870Z,22.20
2018-06-20T05:11:50.738Z,22.40
2018-06-20T05:14:19.073Z,22.70
2018-06-20T05:16:46.881Z,22.80
2018-06-20T05:19:15.091Z,23.00
2018-06-20T05:21:42.944Z,23.10
2018-06-20T05:24:11.362Z,23.30
2018-06-20T05:26:39.169Z,23.40
2018-06-20T05:29:07.387Z,23.60
2018-06-20T05:31:35.227Z,23.80
2018-06-20T05:34:03.651Z,23.90
2018-06-20T05:36:31.564Z,24.10
2018-06-20T05:38:59.691Z,24.30
2018-06-20T05:41:27.817Z,24.50
2018-06-20T05:43:56.116Z,24.60
2018-06-20T05:46:24.006Z,24.70
2018-06-20T05:48:51.999Z,24.90
2018-06-20T05:51:19.928Z,25.10
2018-06-20T05:53:48.211Z,25.40
2018-06-20T05:56:16.320Z,25.70
2018-06-20T05:58:44.320Z,26.20
2018-06-20T06:01:12.222Z,26.70
2018-06-20T06:03:42.067Z,26.90
2018-06-20T06:06:13.299Z,27.20
2018-06-20T06:08:41.559Z,27.50
2018-06-20T06:11:09.509Z,28.00
2018-06-20T06:13:37.573Z,28.30
2018-06-20T06:16:05.674Z,28.40
2018-06-20T06:18:34.052Z,28.50
2018-06-20T06:21:01.866Z,28.80
2018-06-20T06:23:29.694Z,29.10
2018-06-20T06:25:57.708Z,29.30
2018-06-20T06:28:26.734Z,29.60
2018-06-20T06:30:54.765Z,29.90
2018-06-20T06:33:22.739Z,30.30
2018-06-20T06:35:50.471Z,30.80
2018-06-20T06:38:18.431Z,31.10
2018-06-20T06:43:14.434Z,32.00
2018-06-20T06:45:42.209Z,32.20
2018-06-20T06:48:10.591Z,32.60
2018-06-20T06:50:38.630Z,33.00
2018-06-20T06:53:07.129Z,33.60
2018-06-20T06:55:35.393Z,34.10
2018-06-20T06:58:03.469Z,34.50
2018-06-20T07:00:31.380Z,35.20
2018-06-20T07:02:59.206Z,35.80
2018-06-20T07:05:27.068Z,36.30
2018-06-20T07:07:54.845Z,36.60
2018-06-20T07:10:22.936Z,37.00
2018-06-20T07:12:50.682Z,37.30
2018-06-20T07:15:18.961Z,37.40
2018-06-20T07:17:47.134Z,37.80
2018-06-20T07:20:14.977Z,37.60
2018-06-20T07:22:42.884Z,37.80
2018-06-20T07:25:10.634Z,38.10
2018-06-20T07:27:39.063Z,38.40
2018-06-20T07:30:07.466Z,38.60
2018-06-20T07:32:35.554Z,39.00
2018-06-20T07:35:03.406Z,39.20
2018-06-20T07:37:31.254Z,39.60
2018-06-20T07:39:59.158Z,40.00
2018-06-20T07:42:26.921Z,40.30
2018-06-20T07:44:54.719Z,40.80
2018-06-20T07:47:22.450Z,41.30
2018-06-20T07:49:50.374Z,41.80
2018-06-20T07:52:18.406Z,42.40
2018-06-20T07:54:46.586Z,43.30
2018-06-20T07:57:14.435Z,43.70
2018-06-20T07:59:47.985Z,44.10
2018-06-20T08:02:32.902Z,44.80
2018-06-20T08:05:06.786Z,46.10
2018-06-20T08:07:40.241Z,46.00
2018-06-20T08:10:13.771Z,45.30
2018-06-20T08:12:47.126Z,45.10
2018-06-20T08:15:20.483Z,45.70
2018-06-20T08:17:54.084Z,46.40
2018-06-20T08:20:23.768Z,44.90
2018-06-20T08:22:51.566Z,44.30
2018-06-20T08:25:19.430Z,44.60
2018-06-20T08:27:47.669Z,45.50
2018-06-20T08:30:15.774Z,46.40
2018-06-20T08:32:43.926Z,47.60
2018-06-20T08:35:11.736Z,48.00
2018-06-20T08:37:39.500Z,48.20
2018-06-20T08:40:07.763Z,48.30
2018-06-20T08:42:35.553Z,47.60
2018-06-20T08:45:03.739Z,47.10
2018-06-20T08:47:31.795Z,47.30
2018-06-20T08:49:59.635Z,47.10
2018-06-20T08:52:27.811Z,47.40
2018-06-20T08:54:55.673Z,46.30
2018-06-20T08:57:23.537Z,45.30
2018-06-20T08:59:51.404Z,44.20
2018-06-20T09:02:20.014Z,42.60
2018-06-20T09:04:53.418Z,40.90
2018-06-20T09:07:26.745Z,39.60
2018-06-20T09:10:00.774Z,38.20
2018-06-20T09:12:34.199Z,36.60
2018-06-20T09:15:07.746Z,35.50
2018-06-20T09:17:41.392Z,34.60
2018-06-20T09:20:09.203Z,34.00
2018-06-20T09:22:37.141Z,33.50
2018-06-20T09:25:05.078Z,33.30
2018-06-20T09:27:33.021Z,32.80
2018-06-20T09:30:01.144Z,32.50
2018-06-20T09:32:28.963Z,32.10
2018-06-20T09:34:56.757Z,31.80
2018-06-20T09:37:25.016Z,31.50
2018-06-20T09:39:52.769Z,31.40
2018-06-20T09:42:20.665Z,31.30
2018-06-20T09:44:48.658Z,31.20
2018-06-20T09:47:17.127Z,31.10
2018-06-20T09:49:45.028Z,30.80
2018-06-20T09:52:13.292Z,30.40
2018-06-20T09:54:41.464Z,30.20
2018-06-20T09:57:09.316Z,30.00
2018-06-20T09:59:43.128Z,29.90
2018-06-20T10:02:16.618Z,30.00
2018-06-20T10:04:50.087Z,30.00
2018-06-20T10:07:24.465Z,30.20
2018-06-20T10:09:57.923Z,30.30
2018-06-20T10:13:31.062Z,30.30
2018-06-20T10:15:58.890Z,30.30
2018-06-20T10:18:26.758Z,30.50
2018-06-20T10:20:54.554Z,30.40
2018-06-20T10:23:22.958Z,30.30
2018-06-20T10:25:51.023Z,30.30
2018-06-20T10:28:19.086Z,30.30
2018-06-20T10:33:14.827Z,30.20
2018-06-20T10:35:42.980Z,30.20
2018-06-20T10:38:10.738Z,30.20
2018-06-20T10:43:06.267Z,30.30
2018-06-20T10:45:39.935Z,30.30
2018-06-20T10:48:12.703Z,30.20
2018-06-20T10:50:41.099Z,30.20
2018-06-20T10:53:09.098Z,30.20
2018-06-20T10:55:38.730Z,30.20
2018-06-20T10:58:12.846Z,30.20
2018-06-20T11:00:46.735Z,30.30
2018-06-20T11:03:20.035Z,30.30
2018-06-20T11:05:53.559Z,30.20
2018-06-20T11:08:27.008Z,30.30
2018-06-20T11:11:00.451Z,30.40
2018-06-20T11:13:28.731Z,30.40
2018-06-20T11:15:56.550Z,30.50
2018-06-20T11:18:24.434Z,30.50
2018-06-20T11:20:57.091Z,30.50
2018-06-20T11:23:25.654Z,30.40
2018-06-20T11:25:53.645Z,30.50
2018-06-20T11:28:21.705Z,30.30
2018-06-20T11:30:49.577Z,30.50
2018-06-20T11:33:17.742Z,30.60
2018-06-20T11:35:45.530Z,30.70
2018-06-20T11:38:13.380Z,30.60
2018-06-20T11:40:41.118Z,30.60
2018-06-20T11:43:09.041Z,30.70
2018-06-20T11:45:42.427Z,30.70
2018-06-20T11:48:10.399Z,30.80
2018-06-20T11:50:38.464Z,30.70
2018-06-20T11:53:07.499Z,30.70
2018-06-20T11:55:43.398Z,30.80
2018-06-20T11:58:16.675Z,30.90
2018-06-20T12:00:49.928Z,30.80
2018-06-20T12:03:23.491Z,30.80
2018-06-20T12:05:57.015Z,30.80
2018-06-20T12:09:30.176Z,30.90
2018-06-20T12:12:03.641Z,31.00
2018-06-20T12:14:37.002Z,31.00
2018-06-20T12:17:04.526Z,31.10
2018-06-20T12:19:38.211Z,31.10
2018-06-20T12:22:11.565Z,31.10
2018-06-20T12:24:45.467Z,31.00
2018-06-20T12:27:18.946Z,30.90
2018-06-20T12:29:52.366Z,30.90
2018-06-20T12:32:26.117Z,30.80
2018-06-20T12:34:59.722Z,30.70
2018-06-20T12:37:33.051Z,30.60
2018-06-20T12:40:09.390Z,30.40
2018-06-20T12:42:42.617Z,30.30
2018-06-20T12:45:13.141Z,30.30
2018-06-20T12:47:46.755Z,30.30
2018-06-20T12:50:23.276Z,30.30
2018-06-20T12:52:51.280Z,30.30
2018-06-20T12:55:19.262Z,30.30
2018-06-20T12:57:47.168Z,30.30
2018-06-20T13:00:15.394Z,30.30
2018-06-20T13:02:43.662Z,30.20
2018-06-20T13:05:11.819Z,30.20
2018-06-20T13:07:39.687Z,30.20
2018-06-20T13:10:07.679Z,30.10
2018-06-20T13:12:35.795Z,30.20
2018-06-20T13:15:03.663Z,30.10
2018-06-20T13:17:32.539Z,30.10
2018-06-20T13:20:00.544Z,30.10
2018-06-20T13:22:28.556Z,30.10
2018-06-20T13:24:56.336Z,30.10
2018-06-20T13:27:29.968Z,30.10
2018-06-20T13:30:03.398Z,30.10
2018-06-20T13:32:36.907Z,30.10
2018-06-20T13:35:10.214Z,30.20
2018-06-20T13:37:44.060Z,30.30
2018-06-20T13:40:17.731Z,30.30
2018-06-20T13:42:51.282Z,30.30
2018-06-20T13:45:24.660Z,30.30
2018-06-20T13:47:58.600Z,30.30
2018-06-20T13:50:26.452Z,30.30
2018-06-20T13:52:54.548Z,30.40
2018-06-20T13:55:22.714Z,30.40
2018-06-20T13:57:50.491Z,30.40
2018-06-20T14:00:18.688Z,30.60
2018-06-20T14:02:46.870Z,30.60
2018-06-20T14:05:14.685Z,30.60
2018-06-20T14:10:10.511Z,30.60
2018-06-20T14:12:38.953Z,30.60
2018-06-20T14:15:07.007Z,30.60
2018-06-20T14:17:34.783Z,30.60
2018-06-20T14:20:08.791Z,30.60
2018-06-20T14:22:36.692Z,30.50
2018-06-20T14:25:04.456Z,30.40
2018-06-20T14:27:32.818Z,30.40
2018-06-20T14:30:00.910Z,30.40
2018-06-20T14:32:34.339Z,30.40
2018-06-20T14:35:07.889Z,30.50
2018-06-20T14:37:41.467Z,30.30
2018-06-20T14:40:15.095Z,30.40
2018-06-20T14:47:49.801Z,30.30
2018-06-20T14:50:18.517Z,30.30
2018-06-20T14:52:46.731Z,30.20
2018-06-20T14:55:14.773Z,30.20
2018-06-20T14:57:42.628Z,30.20
2018-06-20T15:00:10.620Z,30.20
2018-06-20T15:02:38.697Z,30.30
2018-06-20T15:05:06.847Z,30.20
2018-06-20T15:07:35.032Z,30.20
2018-06-20T15:10:04.784Z,30.10
2018-06-20T15:12:32.651Z,30.10
2018-06-20T15:15:00.992Z,30.10
2018-06-20T15:17:30.279Z,30.10
2018-06-20T15:19:58.545Z,30.20
2018-06-20T15:22:29.078Z,30.10
2018-06-20T15:24:57.233Z,30.00
2018-06-20T15:27:30.603Z,30.00
2018-06-20T15:30:04.095Z,29.90
2018-06-20T15:32:38.142Z,29.90
2018-06-20T15:35:11.557Z,30.00
2018-06-20T15:37:45.274Z,30.00
2018-06-20T15:40:13.235Z,30.00
2018-06-20T15:42:41.406Z,30.00
2018-06-20T15:45:09.180Z,30.10
2018-06-20T15:47:37.251Z,29.90
2018-06-20T15:50:06.223Z,30.00
2018-06-20T15:52:34.023Z,29.90
2018-06-20T15:57:30.164Z,29.80
2018-06-20T15:59:58.057Z,29.80
2018-06-20T16:02:25.815Z,29.80
2018-06-20T16:04:53.646Z,29.80
2018-06-20T16:07:21.771Z,29.80
2018-06-20T16:09:53.587Z,29.70
2018-06-20T16:12:21.568Z,29.70
2018-06-20T16:14:49.692Z,29.70
2018-06-20T16:17:18.556Z,29.70
2018-06-20T16:19:51.816Z,29.70
2018-06-20T16:22:25.174Z,29.60
2018-06-20T16:24:58.524Z,29.60
2018-06-20T16:27:31.879Z,29.50
2018-06-20T16:30:05.196Z,29.60
2018-06-20T16:32:33.012Z,29.50
2018-06-20T16:35:01.329Z,29.50
2018-06-20T16:37:29.536Z,29.50
2018-06-20T16:39:57.334Z,29.50
2018-06-20T16:42:25.122Z,29.50
2018-06-20T16:44:53.216Z,29.40
2018-06-20T16:47:21.168Z,29.40
2018-06-20T16:49:49.005Z,29.40
2018-06-20T16:52:16.934Z,29.40
2018-06-20T16:54:44.867Z,29.40
2018-06-20T16:57:12.575Z,29.40
2018-06-20T16:59:40.669Z,29.20
2018-06-20T17:02:14.143Z,29.20
2018-06-20T17:04:41.970Z,29.20
2018-06-20T17:07:13.380Z,29.10
2018-06-20T17:09:41.156Z,29.10
2018-06-20T17:12:14.603Z,28.90
2018-06-20T17:14:48.030Z,29.10
2018-06-20T17:17:21.444Z,29.00
2018-06-20T17:19:54.926Z,28.90
2018-06-20T17:22:28.518Z,28.90
2018-06-20T17:25:02.138Z,28.90
2018-06-20T17:27:30.038Z,28.90
2018-06-20T17:29:58.003Z,28.80
2018-06-20T17:32:25.842Z,28.70
2018-06-20T17:34:53.802Z,28.70
2018-06-20T17:37:21.564Z,28.60
2018-06-20T17:39:49.588Z,28.70
2018-06-20T17:42:17.367Z,28.60
2018-06-20T17:44:45.418Z,28.60
2018-06-20T17:47:13.411Z,28.60
2018-06-20T17:49:41.251Z,28.50
2018-06-20T17:52:09.818Z,28.60
2018-06-20T17:54:37.822Z,28.60
2018-06-20T17:57:06.127Z,28.50
2018-06-20T17:59:34.721Z,28.50
2018-06-20T18:02:02.651Z,28.40
2018-06-20T18:04:35.962Z,28.40
2018-06-20T18:07:09.467Z,28.30
2018-06-20T18:09:43.422Z,28.30
2018-06-20T18:12:17.057Z,28.10
2018-06-20T18:15:50.732Z,28.10
2018-06-20T18:18:18.463Z,28.10
2018-06-20T18:20:46.567Z,28.00
2018-06-20T18:23:14.467Z,28.00
2018-06-20T18:25:42.205Z,28.00
2018-06-20T18:28:10.084Z,27.70
2018-06-20T18:30:38.797Z,28.00
2018-06-20T18:33:06.640Z,27.90
2018-06-20T18:35:34.472Z,27.90
2018-06-20T18:38:02.575Z,28.00
2018-06-20T18:40:30.340Z,27.90
2018-06-20T18:42:58.117Z,27.80
2018-06-20T18:45:26.261Z,27.70
2018-06-20T18:47:59.614Z,27.70
2018-06-20T18:50:27.374Z,27.50
2018-06-20T18:52:55.754Z,27.40
2018-06-20T18:55:23.822Z,27.20
2018-06-20T18:57:57.541Z,27.20
2018-06-20T19:00:31.168Z,27.10
2018-06-20T19:03:04.416Z,27.00
2018-06-20T19:05:37.796Z,27.00
2018-06-20T19:08:11.479Z,26.90
2018-06-20T19:10:39.470Z,26.80
2018-06-20T19:13:07.280Z,26.80
2018-06-20T19:15:35.073Z,26.70
2018-06-20T19:18:02.922Z,26.70
2018-06-20T19:20:30.725Z,26.70
2018-06-20T19:22:58.518Z,26.60
2018-06-20T19:25:26.695Z,26.50
2018-06-20T19:27:54.758Z,26.50
2018-06-20T19:30:23.179Z,26.40
2018-06-20T19:32:51.079Z,26.40
2018-06-20T19:35:19.216Z,26.20
2018-06-20T19:37:47.150Z,26.10
2018-06-20T19:40:14.968Z,26.10
2018-06-20T19:42:43.042Z,26.10
2018-06-20T19:45:10.932Z,26.00
2018-06-20T19:47:39.022Z,26.10
2018-06-20T19:50:07.401Z,25.90
2018-06-20T19:52:35.403Z,25.80
2018-06-20T19:55:03.599Z,25.80
2018-06-20T19:57:31.351Z,25.80
2018-06-20T19:59:59.154Z,25.80
2018-06-20T20:02:27.326Z,25.70
2018-06-20T20:04:55.300Z,25.70
2018-06-20T20:07:23.158Z,25.70
2018-06-20T20:09:51.155Z,25.60
2018-06-20T20:12:19.023Z,25.50
2018-06-20T20:14:47.214Z,25.40
2018-06-20T20:17:15.375Z,25.30
2018-06-20T20:19:43.758Z,25.20
2018-06-20T20:22:12.152Z,25.10
2018-06-20T20:24:40.206Z,25.00
2018-06-20T20:27:08.281Z,24.90
2018-06-20T20:29:36.253Z,24.90
2018-06-20T20:34:32.064Z,24.70
2018-06-20T20:37:00.518Z,24.70
2018-06-20T20:39:28.411Z,24.70
2018-06-20T20:41:56.497Z,24.60
2018-06-20T20:44:25.538Z,24.50
2018-06-20T20:46:53.473Z,24.50
2018-06-20T20:49:21.693Z,24.50
2018-06-20T20:51:49.631Z,24.50
2018-06-20T20:54:17.457Z,24.50
2018-06-20T20:59:12.899Z,24.40
2018-06-20T21:01:40.691Z,24.40
2018-06-20T21:04:08.830Z,24.20
2018-06-20T21:06:37.055Z,24.30
2018-06-20T21:09:06.942Z,24.20
2018-06-20T21:11:35.586Z,24.20
2018-06-20T21:14:03.633Z,24.10
2018-06-20T21:16:32.024Z,24.10
2018-06-20T21:19:00.030Z,24.00
2018-06-20T21:21:28.644Z,23.90
2018-06-20T21:23:56.788Z,23.90
2018-06-20T21:26:25.208Z,23.90
2018-06-20T21:28:53.463Z,24.00
2018-06-20T21:31:21.831Z,23.90
2018-06-20T21:33:50.137Z,23.90
2018-06-20T21:36:18.815Z,23.80
2018-06-20T21:38:47.905Z,23.80
2018-06-20T21:41:16.523Z,23.70
2018-06-20T21:43:44.784Z,23.70
2018-06-20T21:46:13.289Z,23.60
2018-06-20T21:48:41.618Z,23.50
2018-06-20T21:51:10.380Z,23.40
2018-06-20T21:53:38.528Z,23.40
2018-06-20T21:56:06.322Z,23.30
2018-06-20T21:58:34.939Z,23.30
2018-06-20T22:01:03.342Z,23.20
2018-06-20T22:03:31.253Z,23.20
2018-06-20T22:05:59.139Z,23.20
2018-06-20T22:08:27.029Z,23.10
2018-06-20T22:10:55.152Z,23.10
2018-06-20T22:13:23.451Z,23.00
2018-06-20T22:15:51.675Z,22.90
2018-06-20T22:18:19.675Z,22.80
2018-06-20T22:20:47.808Z,22.80
2018-06-20T22:23:16.251Z,22.80
2018-06-20T22:25:44.119Z,22.70
2018-06-20T22:28:12.003Z,22.70
2018-06-20T22:30:39.833Z,22.60
2018-06-20T22:33:07.719Z,22.40
2018-06-20T22:35:35.772Z,22.60
2018-06-20T22:38:03.832Z,22.50
2018-06-20T22:40:31.897Z,22.40
2018-06-20T22:42:59.771Z,22.40
2018-06-20T22:45:27.808Z,22.40
2018-06-20T22:47:55.711Z,22.30
2018-06-20T22:50:23.475Z,22.40
2018-06-20T22:52:51.457Z,22.20
2018-06-20T22:55:19.331Z,22.20
2018-06-20T22:57:47.103Z,22.20
2018-06-20T23:00:14.831Z,22.10
2018-06-20T23:02:42.740Z,22.10
2018-06-20T23:05:11.096Z,22.10
2018-06-20T23:07:38.804Z,21.90
2018-06-20T23:10:06.727Z,22.00
2018-06-20T23:12:34.516Z,22.00
2018-06-20T23:15:02.312Z,21.90
2018-06-20T23:17:30.358Z,21.90
2018-06-20T23:19:58.608Z,21.80
2018-06-20T23:22:26.697Z,21.60
2018-06-20T23:24:54.529Z,21.70
2018-06-20T23:27:22.518Z,21.70
2018-06-20T23:29:50.386Z,21.60
2018-06-20T23:32:18.762Z,21.60
2018-06-20T23:34:46.543Z,21.60
2018-06-20T23:37:14.667Z,21.60
2018-06-20T23:39:42.379Z,21.50
2018-06-20T23:42:10.335Z,21.60
2018-06-20T23:44:38.143Z,21.50
2018-06-20T23:47:06.460Z,21.40
2018-06-20T23:49:34.214Z,21.40
2018-06-20T23:52:02.515Z,21.40
2018-06-20T23:54:30.461Z,21.40
2018-06-20T23:56:58.637Z,21.20
2018-06-20T23:59:26.511Z,21.00
